sensor_id;sensor_type;location;lat;lon;timestamp;P1;durP1;ratioP1;P2;durP2;ratioP2
8399;SDS011;4237;47.030;15.396;2024-03-23T00:54:39;6.80;;;6.10;;
8399;SDS011;4237;47.030;15.396;2024-03-23T00:57:08;8.90;;;6.17;;
8399;SDS011;4237;47.030;15.396;2024-03-23T00:59:36;6.97;;;6.07;;
8399;SDS011;4237;47.030;15.396;2024-03-23T01:02:05;8.87;;;6.10;;
8399;SDS011;4237;47.030;15.396;2024-03-23T01:04:33;8.90;;;6.00;;
8399;SDS011;4237;47.030;15.396;2024-03-23T01:07:02;9.30;;;6.47;;
8399;SDS011;4237;47.030;15.396;2024-03-23T01:09:31;9.33;;;6.30;;
8399;SDS011;4237;47.030;15.396;2024-03-23T01:11:59;7.60;;;6.00;;
8399;SDS011;4237;47.030;15.396;2024-03-23T01:14:28;5.90;;;5.30;;
8399;SDS011;4237;47.030;15.396;2024-03-23T01:16:57;7.50;;;5.93;;
8399;SDS011;4237;47.030;15.396;2024-03-23T01:19:25;8.17;;;6.00;;
8399;SDS011;4237;47.030;15.396;2024-03-23T01:21:54;6.67;;;5.93;;
8399;SDS011;4237;47.030;15.396;2024-03-23T01:24:22;6.93;;;5.67;;
8399;SDS011;4237;47.030;15.396;2024-03-23T01:26:51;6.97;;;5.50;;
8399;SDS011;4237;47.030;15.396;2024-03-23T01:29:19;9.33;;;6.13;;
8399;SDS011;4237;47.030;15.396;2024-03-23T01:31:48;5.97;;;5.37;;
8399;SDS011;4237;47.030;15.396;2024-03-23T01:34:16;7.23;;;5.57;;
8399;SDS011;4237;47.030;15.396;2024-03-23T01:36:46;6.47;;;5.60;;
8399;SDS011;4237;47.030;15.396;2024-03-23T01:39:14;6.90;;;6.20;;
8399;SDS011;4237;47.030;15.396;2024-03-23T01:41:43;7.53;;;5.77;;
8399;SDS011;4237;47.030;15.396;2024-03-23T01:44:12;7.23;;;6.17;;
8399;SDS011;4237;47.030;15.396;2024-03-23T01:46:40;7.73;;;5.87;;
8399;SDS011;4237;47.030;15.396;2024-03-23T01:49:09;8.00;;;5.70;;
8399;SDS011;4237;47.030;15.396;2024-03-23T01:51:38;5.97;;;5.37;;
8399;SDS011;4237;47.030;15.396;2024-03-23T01:54:07;7.30;;;5.97;;
8399;SDS011;4237;47.030;15.396;2024-03-23T01:56:35;8.50;;;6.37;;
8399;SDS011;4237;47.030;15.396;2024-03-23T01:59:04;6.07;;;5.47;;
8399;SDS011;4237;47.030;15.396;2024-03-23T02:01:36;6.73;;;6.03;;
8399;SDS011;4237;47.030;15.396;2024-03-23T02:04:04;8.17;;;6.00;;
8399;SDS011;4237;47.030;15.396;2024-03-23T02:06:33;6.43;;;5.80;;
8399;SDS011;4237;47.030;15.396;2024-03-23T02:09:02;6.63;;;5.67;;
8399;SDS011;4237;47.030;15.396;2024-03-23T02:11:31;6.60;;;5.73;;
8399;SDS011;4237;47.030;15.396;2024-03-23T02:13:59;8.43;;;5.93;;
8399;SDS011;4237;47.030;15.396;2024-03-23T02:16:28;8.03;;;5.33;;
8399;SDS011;4237;47.030;15.396;2024-03-23T02:18:57;6.90;;;5.47;;
8399;SDS011;4237;47.030;15.396;2024-03-23T02:21:25;7.63;;;5.90;;
8399;SDS011;4237;47.030;15.396;2024-03-23T02:23:55;6.67;;;5.30;;
8399;SDS011;4237;47.030;15.396;2024-03-23T02:26:24;5.73;;;5.13;;
8399;SDS011;4237;47.030;15.396;2024-03-23T02:28:52;5.77;;;5.10;;
8399;SDS011;4237;47.030;15.396;2024-03-23T02:31:21;7.73;;;5.17;;
8399;SDS011;4237;47.030;15.396;2024-03-23T02:33:49;7.83;;;6.20;;
8399;SDS011;4237;47.030;15.396;2024-03-23T02:36:18;10.77;;;7.70;;
8399;SDS011;4237;47.030;15.396;2024-03-23T02:38:47;40.77;;;20.73;;
8399;SDS011;4237;47.030;15.396;2024-03-23T02:41:16;79.30;;;40.07;;
8399;SDS011;4237;47.030;15.396;2024-03-23T02:43:48;68.07;;;36.80;;
8399;SDS011;4237;47.030;15.396;2024-03-23T02:46:18;61.97;;;32.27;;
8399;SDS011;4237;47.030;15.396;2024-03-23T02:48:48;39.33;;;23.23;;
8399;SDS011;4237;47.030;15.396;2024-03-23T02:51:16;14.67;;;9.03;;
8399;SDS011;4237;47.030;15.396;2024-03-23T02:53:45;8.67;;;6.63;;
8399;SDS011;4237;47.030;15.396;2024-03-23T02:56:14;11.90;;;7.87;;
8399;SDS011;4237;47.030;15.396;2024-03-23T02:58:43;14.00;;;9.23;;
8399;SDS011;4237;47.030;15.396;2024-03-23T03:01:11;18.70;;;12.63;;
8399;SDS011;4237;47.030;15.396;2024-03-23T03:03:40;18.57;;;11.63;;
8399;SDS011;4237;47.030;15.396;2024-03-23T03:06:09;16.83;;;11.07;;
8399;SDS011;4237;47.030;15.396;2024-03-23T03:08:37;14.10;;;9.07;;
8399;SDS011;4237;47.030;15.396;2024-03-23T03:11:06;8.47;;;7.10;;
8399;SDS011;4237;47.030;15.396;2024-03-23T03:13:34;10.00;;;7.27;;
8399;SDS011;4237;47.030;15.396;2024-03-23T03:16:03;10.17;;;7.27;;
8399;SDS011;4237;47.030;15.396;2024-03-23T03:18:34;9.70;;;6.83;;
8399;SDS011;4237;47.030;15.396;2024-03-23T03:21:03;7.83;;;6.13;;
8399;SDS011;4237;47.030;15.396;2024-03-23T03:23:34;9.63;;;6.20;;
8399;SDS011;4237;47.030;15.396;2024-03-23T03:26:02;7.10;;;5.67;;
8399;SDS011;4237;47.030;15.396;2024-03-23T03:28:31;6.47;;;5.67;;
8399;SDS011;4237;47.030;15.396;2024-03-23T03:31:00;8.70;;;6.10;;
8399;SDS011;4237;47.030;15.396;2024-03-23T03:33:28;9.30;;;6.30;;
8399;SDS011;4237;47.030;15.396;2024-03-23T03:35:57;7.00;;;6.00;;
8399;SDS011;4237;47.030;15.396;2024-03-23T03:38:25;7.20;;;6.23;;
8399;SDS011;4237;47.030;15.396;2024-03-23T03:40:54;7.77;;;5.80;;
8399;SDS011;4237;47.030;15.396;2024-03-23T03:43:23;6.37;;;5.70;;
8399;SDS011;4237;47.030;15.396;2024-03-23T03:45:52;6.40;;;5.80;;
8399;SDS011;4237;47.030;15.396;2024-03-23T03:48:21;6.30;;;5.70;;
8399;SDS011;4237;47.030;15.396;2024-03-23T03:50:49;6.43;;;5.57;;
8399;SDS011;4237;47.030;15.396;2024-03-23T03:53:18;7.50;;;5.97;;
8399;SDS011;4237;47.030;15.396;2024-03-23T03:55:47;6.40;;;5.77;;
8399;SDS011;4237;47.030;15.396;2024-03-23T03:58:15;7.23;;;5.50;;
8399;SDS011;4237;47.030;15.396;2024-03-23T04:00:44;7.60;;;6.37;;
8399;SDS011;4237;47.030;15.396;2024-03-23T04:03:12;6.83;;;5.73;;
8399;SDS011;4237;47.030;15.396;2024-03-23T04:05:41;6.67;;;5.63;;
8399;SDS011;4237;47.030;15.396;2024-03-23T04:08:10;7.17;;;6.07;;
8399;SDS011;4237;47.030;15.396;2024-03-23T04:10:38;7.43;;;5.77;;
8399;SDS011;4237;47.030;15.396;2024-03-23T04:13:07;6.63;;;5.93;;
8399;SDS011;4237;47.030;15.396;2024-03-23T04:15:35;8.13;;;6.57;;
8399;SDS011;4237;47.030;15.396;2024-03-23T04:18:04;10.67;;;8.90;;
8399;SDS011;4237;47.030;15.396;2024-03-23T04:20:33;15.77;;;11.37;;
8399;SDS011;4237;47.030;15.396;2024-03-23T04:23:01;12.90;;;10.67;;
8399;SDS011;4237;47.030;15.396;2024-03-23T04:25:30;10.47;;;9.00;;
8399;SDS011;4237;47.030;15.396;2024-03-23T04:27:58;8.10;;;6.93;;
8399;SDS011;4237;47.030;15.396;2024-03-23T04:30:27;12.20;;;7.40;;
8399;SDS011;4237;47.030;15.396;2024-03-23T04:32:56;9.63;;;7.00;;
8399;SDS011;4237;47.030;15.396;2024-03-23T04:35:25;8.87;;;7.23;;
8399;SDS011;4237;47.030;15.396;2024-03-23T04:37:53;8.93;;;6.60;;
8399;SDS011;4237;47.030;15.396;2024-03-23T04:40:25;7.37;;;6.10;;
8399;SDS011;4237;47.030;15.396;2024-03-23T04:42:54;7.83;;;5.83;;
8399;SDS011;4237;47.030;15.396;2024-03-23T04:45:23;7.83;;;6.40;;
8399;SDS011;4237;47.030;15.396;2024-03-23T04:47:51;7.07;;;5.97;;
8399;SDS011;4237;47.030;15.396;2024-03-23T04:50:20;8.60;;;5.70;;
8399;SDS011;4237;47.030;15.396;2024-03-23T04:52:48;5.90;;;5.30;;
8399;SDS011;4237;47.030;15.396;2024-03-23T04:55:17;6.33;;;5.63;;
8399;SDS011;4237;47.030;15.396;2024-03-23T04:57:46;7.30;;;5.13;;
8399;SDS011;4237;47.030;15.396;2024-03-23T05:00:14;6.77;;;5.53;;
8399;SDS011;4237;47.030;15.396;2024-03-23T05:02:45;8.83;;;5.73;;
8399;SDS011;4237;47.030;15.396;2024-03-23T05:05:14;6.23;;;5.63;;
8399;SDS011;4237;47.030;15.396;2024-03-23T05:07:42;8.67;;;5.93;;
8399;SDS011;4237;47.030;15.396;2024-03-23T05:10:11;6.27;;;5.70;;
8399;SDS011;4237;47.030;15.396;2024-03-23T05:12:40;6.63;;;5.70;;
8399;SDS011;4237;47.030;15.396;2024-03-23T05:15:09;6.67;;;5.50;;
8399;SDS011;4237;47.030;15.396;2024-03-23T05:17:38;9.30;;;5.03;;
8399;SDS011;4237;47.030;15.396;2024-03-23T05:20:06;6.37;;;5.37;;
8399;SDS011;4237;47.030;15.396;2024-03-23T05:22:36;7.93;;;6.50;;
8399;SDS011;4237;47.030;15.396;2024-03-23T05:25:05;7.77;;;5.83;;
8399;SDS011;4237;47.030;15.396;2024-03-23T05:27:34;8.53;;;6.57;;
8399;SDS011;4237;47.030;15.396;2024-03-23T05:30:03;7.07;;;6.23;;
8399;SDS011;4237;47.030;15.396;2024-03-23T05:32:33;7.57;;;6.60;;
8399;SDS011;4237;47.030;15.396;2024-03-23T05:35:01;7.63;;;6.20;;
8399;SDS011;4237;47.030;15.396;2024-03-23T05:37:30;8.03;;;5.53;;
8399;SDS011;4237;47.030;15.396;2024-03-23T05:40:00;7.87;;;5.93;;
8399;SDS011;4237;47.030;15.396;2024-03-23T05:42:30;7.60;;;6.03;;
8399;SDS011;4237;47.030;15.396;2024-03-23T05:44:59;7.87;;;6.43;;
8399;SDS011;4237;47.030;15.396;2024-03-23T05:47:27;9.17;;;6.30;;
8399;SDS011;4237;47.030;15.396;2024-03-23T05:49:56;7.63;;;6.47;;
8399;SDS011;4237;47.030;15.396;2024-03-23T05:52:25;10.53;;;6.57;;
8399;SDS011;4237;47.030;15.396;2024-03-23T05:54:54;11.87;;;7.40;;
8399;SDS011;4237;47.030;15.396;2024-03-23T05:57:22;9.97;;;7.27;;
8399;SDS011;4237;47.030;15.396;2024-03-23T05:59:51;9.23;;;6.97;;
8399;SDS011;4237;47.030;15.396;2024-03-23T06:02:19;8.57;;;6.43;;
8399;SDS011;4237;47.030;15.396;2024-03-23T06:04:48;10.53;;;6.90;;
8399;SDS011;4237;47.030;15.396;2024-03-23T06:07:16;10.03;;;6.67;;
8399;SDS011;4237;47.030;15.396;2024-03-23T06:09:45;10.30;;;6.57;;
8399;SDS011;4237;47.030;15.396;2024-03-23T06:12:13;9.20;;;6.87;;
8399;SDS011;4237;47.030;15.396;2024-03-23T06:14:42;10.17;;;6.83;;
8399;SDS011;4237;47.030;15.396;2024-03-23T06:17:10;13.27;;;6.43;;
8399;SDS011;4237;47.030;15.396;2024-03-23T06:19:40;9.63;;;6.50;;
8399;SDS011;4237;47.030;15.396;2024-03-23T06:22:08;8.60;;;6.77;;
8399;SDS011;4237;47.030;15.396;2024-03-23T06:24:37;10.63;;;6.60;;
8399;SDS011;4237;47.030;15.396;2024-03-23T06:27:05;9.37;;;6.20;;
8399;SDS011;4237;47.030;15.396;2024-03-23T06:29:34;8.83;;;6.50;;
8399;SDS011;4237;47.030;15.396;2024-03-23T06:32:03;9.23;;;6.33;;
8399;SDS011;4237;47.030;15.396;2024-03-23T06:34:32;10.13;;;6.37;;
8399;SDS011;4237;47.030;15.396;2024-03-23T06:37:00;9.27;;;7.37;;
8399;SDS011;4237;47.030;15.396;2024-03-23T06:39:30;10.00;;;7.30;;
8399;SDS011;4237;47.030;15.396;2024-03-23T06:41:58;8.97;;;7.70;;
8399;SDS011;4237;47.030;15.396;2024-03-23T06:44:27;10.10;;;7.10;;
8399;SDS011;4237;47.030;15.396;2024-03-23T06:46:56;8.17;;;6.73;;
8399;SDS011;4237;47.030;15.396;2024-03-23T06:49:25;10.63;;;7.50;;
8399;SDS011;4237;47.030;15.396;2024-03-23T06:51:53;10.73;;;7.43;;
8399;SDS011;4237;47.030;15.396;2024-03-23T06:54:22;10.27;;;7.20;;
8399;SDS011;4237;47.030;15.396;2024-03-23T06:56:52;9.40;;;6.83;;
8399;SDS011;4237;47.030;15.396;2024-03-23T06:59:21;11.27;;;7.70;;
8399;SDS011;4237;47.030;15.396;2024-03-23T07:01:49;9.07;;;7.30;;
8399;SDS011;4237;47.030;15.396;2024-03-23T07:04:18;9.53;;;7.00;;
8399;SDS011;4237;47.030;15.396;2024-03-23T07:06:46;9.83;;;7.10;;
8399;SDS011;4237;47.030;15.396;2024-03-23T07:09:15;9.57;;;6.70;;
8399;SDS011;4237;47.030;15.396;2024-03-23T07:11:44;7.50;;;6.43;;
8399;SDS011;4237;47.030;15.396;2024-03-23T07:14:12;11.00;;;6.93;;
8399;SDS011;4237;47.030;15.396;2024-03-23T07:16:41;8.93;;;7.03;;
8399;SDS011;4237;47.030;15.396;2024-03-23T07:19:10;10.73;;;7.20;;
8399;SDS011;4237;47.030;15.396;2024-03-23T07:21:38;9.70;;;7.23;;
8399;SDS011;4237;47.030;15.396;2024-03-23T07:24:07;9.93;;;6.80;;
8399;SDS011;4237;47.030;15.396;2024-03-23T07:26:35;7.90;;;7.03;;
8399;SDS011;4237;47.030;15.396;2024-03-23T07:29:06;7.60;;;6.80;;
8399;SDS011;4237;47.030;15.396;2024-03-23T07:31:34;8.87;;;6.97;;
8399;SDS011;4237;47.030;15.396;2024-03-23T07:34:03;8.60;;;7.07;;
8399;SDS011;4237;47.030;15.396;2024-03-23T07:36:32;10.10;;;7.40;;
8399;SDS011;4237;47.030;15.396;2024-03-23T07:39:01;10.57;;;7.80;;
8399;SDS011;4237;47.030;15.396;2024-03-23T07:41:30;11.00;;;7.93;;
8399;SDS011;4237;47.030;15.396;2024-03-23T07:43:59;10.47;;;8.27;;
8399;SDS011;4237;47.030;15.396;2024-03-23T07:46:27;9.43;;;7.57;;
8399;SDS011;4237;47.030;15.396;2024-03-23T07:48:56;10.50;;;8.03;;
8399;SDS011;4237;47.030;15.396;2024-03-23T07:51:24;10.77;;;7.80;;
8399;SDS011;4237;47.030;15.396;2024-03-23T07:53:53;10.33;;;7.90;;
8399;SDS011;4237;47.030;15.396;2024-03-23T07:56:22;7.77;;;6.97;;
8399;SDS011;4237;47.030;15.396;2024-03-23T07:58:50;9.80;;;7.83;;
8399;SDS011;4237;47.030;15.396;2024-03-23T08:01:19;12.90;;;8.07;;
8399;SDS011;4237;47.030;15.396;2024-03-23T08:03:49;9.53;;;7.50;;
8399;SDS011;4237;47.030;15.396;2024-03-23T08:06:18;11.10;;;7.60;;
8399;SDS011;4237;47.030;15.396;2024-03-23T08:08:54;8.37;;;7.40;;
8399;SDS011;4237;47.030;15.396;2024-03-23T08:11:21;10.27;;;7.87;;
8399;SDS011;4237;47.030;15.396;2024-03-23T08:13:50;15.03;;;9.93;;
8399;SDS011;4237;47.030;15.396;2024-03-23T08:16:18;14.57;;;9.57;;
8399;SDS011;4237;47.030;15.396;2024-03-23T08:18:47;14.73;;;8.93;;
8399;SDS011;4237;47.030;15.396;2024-03-23T08:21:16;11.60;;;8.50;;
8399;SDS011;4237;47.030;15.396;2024-03-23T08:23:45;10.27;;;7.23;;
8399;SDS011;4237;47.030;15.396;2024-03-23T08:26:15;9.53;;;7.90;;
8399;SDS011;4237;47.030;15.396;2024-03-23T08:28:45;10.40;;;8.17;;
8399;SDS011;4237;47.030;15.396;2024-03-23T08:31:14;10.83;;;7.97;;
8399;SDS011;4237;47.030;15.396;2024-03-23T08:33:43;9.63;;;7.87;;
8399;SDS011;4237;47.030;15.396;2024-03-23T08:36:11;10.03;;;7.20;;
8399;SDS011;4237;47.030;15.396;2024-03-23T08:38:41;10.83;;;7.33;;
8399;SDS011;4237;47.030;15.396;2024-03-23T08:41:10;7.73;;;6.87;;
8399;SDS011;4237;47.030;15.396;2024-03-23T08:43:40;8.57;;;6.37;;
8399;SDS011;4237;47.030;15.396;2024-03-23T08:46:09;7.03;;;6.33;;
8399;SDS011;4237;47.030;15.396;2024-03-23T08:48:39;8.03;;;6.30;;
8399;SDS011;4237;47.030;15.396;2024-03-23T08:51:13;8.87;;;6.70;;
8399;SDS011;4237;47.030;15.396;2024-03-23T08:53:43;8.33;;;6.70;;
8399;SDS011;4237;47.030;15.396;2024-03-23T08:56:11;7.20;;;5.30;;
8399;SDS011;4237;47.030;15.396;2024-03-23T08:58:40;9.43;;;6.73;;
8399;SDS011;4237;47.030;15.396;2024-03-23T09:01:13;7.70;;;6.60;;
8399;SDS011;4237;47.030;15.396;2024-03-23T09:03:42;7.60;;;6.40;;
8399;SDS011;4237;47.030;15.396;2024-03-23T09:06:11;6.73;;;4.63;;
8399;SDS011;4237;47.030;15.396;2024-03-23T09:08:42;8.10;;;5.13;;
8399;SDS011;4237;47.030;15.396;2024-03-23T09:11:11;5.50;;;4.57;;
8399;SDS011;4237;47.030;15.396;2024-03-23T09:13:40;4.67;;;4.17;;
8399;SDS011;4237;47.030;15.396;2024-03-23T09:16:09;8.15;;;4.35;;
8399;SDS011;4237;47.030;15.396;2024-03-23T09:18:38;5.92;;;3.90;;
8399;SDS011;4237;47.030;15.396;2024-03-23T09:21:12;4.90;;;4.22;;
8399;SDS011;4237;47.030;15.396;2024-03-23T09:23:47;5.75;;;4.28;;
8399;SDS011;4237;47.030;15.396;2024-03-23T09:26:12;5.23;;;3.73;;
8399;SDS011;4237;47.030;15.396;2024-03-23T09:28:40;6.07;;;4.47;;
8399;SDS011;4237;47.030;15.396;2024-03-23T09:31:09;6.03;;;4.83;;
8399;SDS011;4237;47.030;15.396;2024-03-23T09:33:39;7.10;;;4.80;;
8399;SDS011;4237;47.030;15.396;2024-03-23T09:36:08;8.57;;;4.90;;
8399;SDS011;4237;47.030;15.396;2024-03-23T09:38:37;7.73;;;4.97;;
8399;SDS011;4237;47.030;15.396;2024-03-23T09:41:09;7.00;;;4.60;;
8399;SDS011;4237;47.030;15.396;2024-03-23T09:43:38;7.20;;;6.03;;
8399;SDS011;4237;47.030;15.396;2024-03-23T09:46:07;7.00;;;5.90;;
8399;SDS011;4237;47.030;15.396;2024-03-23T09:48:36;6.30;;;5.70;;
8399;SDS011;4237;47.030;15.396;2024-03-23T09:51:05;8.37;;;5.17;;
8399;SDS011;4237;47.030;15.396;2024-03-23T09:53:35;6.77;;;5.90;;
8399;SDS011;4237;47.030;15.396;2024-03-23T09:56:05;5.57;;;4.87;;
8399;SDS011;4237;47.030;15.396;2024-03-23T09:58:35;8.47;;;5.53;;
8399;SDS011;4237;47.030;15.396;2024-03-23T10:01:04;6.07;;;5.47;;
8399;SDS011;4237;47.030;15.396;2024-03-23T10:03:41;5.90;;;5.30;;
8399;SDS011;4237;47.030;15.396;2024-03-23T10:06:10;5.67;;;5.17;;
8399;SDS011;4237;47.030;15.396;2024-03-23T10:08:39;7.47;;;5.50;;
8399;SDS011;4237;47.030;15.396;2024-03-23T10:11:14;6.07;;;5.20;;
8399;SDS011;4237;47.030;15.396;2024-03-23T10:13:43;5.13;;;4.53;;
8399;SDS011;4237;47.030;15.396;2024-03-23T10:16:23;6.07;;;4.90;;
8399;SDS011;4237;47.030;15.396;2024-03-23T10:18:53;6.37;;;4.90;;
8399;SDS011;4237;47.030;15.396;2024-03-23T10:21:22;6.73;;;4.23;;
8399;SDS011;4237;47.030;15.396;2024-03-23T10:23:50;5.10;;;4.60;;
8399;SDS011;4237;47.030;15.396;2024-03-23T10:26:23;5.00;;;4.50;;
8399;SDS011;4237;47.030;15.396;2024-03-23T10:28:57;6.83;;;4.37;;
8399;SDS011;4237;47.030;15.396;2024-03-23T10:31:28;7.43;;;4.27;;
8399;SDS011;4237;47.030;15.396;2024-03-23T10:33:59;5.83;;;3.70;;
8399;SDS011;4237;47.030;15.396;2024-03-23T10:36:27;5.07;;;3.43;;
8399;SDS011;4237;47.030;15.396;2024-03-23T10:38:57;4.45;;;3.87;;
8399;SDS011;4237;47.030;15.396;2024-03-23T10:41:27;3.35;;;3.08;;
8399;SDS011;4237;47.030;15.396;2024-03-23T10:43:59;4.85;;;3.50;;
8399;SDS011;4237;47.030;15.396;2024-03-23T10:46:29;6.25;;;3.72;;
8399;SDS011;4237;47.030;15.396;2024-03-23T10:48:58;4.55;;;3.40;;
8399;SDS011;4237;47.030;15.396;2024-03-23T10:51:27;6.08;;;3.20;;
8399;SDS011;4237;47.030;15.396;2024-03-23T10:53:55;4.03;;;2.98;;
8399;SDS011;4237;47.030;15.396;2024-03-23T10:56:27;5.10;;;3.00;;
8399;SDS011;4237;47.030;15.396;2024-03-23T10:58:57;3.58;;;2.75;;
8399;SDS011;4237;47.030;15.396;2024-03-23T11:01:26;3.02;;;2.77;;
8399;SDS011;4237;47.030;15.396;2024-03-23T11:03:55;3.17;;;2.87;;
8399;SDS011;4237;47.030;15.396;2024-03-23T11:06:36;4.42;;;2.50;;
8399;SDS011;4237;47.030;15.396;2024-03-23T11:12:26;4.10;;;3.45;;
8399;SDS011;4237;47.030;15.396;2024-03-23T11:14:38;4.33;;;3.10;;
8399;SDS011;4237;47.030;15.396;2024-03-23T11:17:10;4.75;;;3.83;;
8399;SDS011;4237;47.030;15.396;2024-03-23T11:19:39;5.25;;;3.80;;
8399;SDS011;4237;47.030;15.396;2024-03-23T11:22:08;5.42;;;3.98;;
8399;SDS011;4237;47.030;15.396;2024-03-23T11:24:36;5.25;;;4.67;;
8399;SDS011;4237;47.030;15.396;2024-03-23T11:27:15;4.55;;;4.15;;
8399;SDS011;4237;47.030;15.396;2024-03-23T11:29:44;4.75;;;4.20;;
8399;SDS011;4237;47.030;15.396;2024-03-23T11:32:12;4.47;;;4.05;;
8399;SDS011;4237;47.030;15.396;2024-03-23T11:34:41;5.00;;;4.50;;
8399;SDS011;4237;47.030;15.396;2024-03-23T11:37:09;6.33;;;4.20;;
8399;SDS011;4237;47.030;15.396;2024-03-23T11:39:38;4.60;;;4.20;;
8399;SDS011;4237;47.030;15.396;2024-03-23T11:42:07;4.60;;;4.12;;
8399;SDS011;4237;47.030;15.396;2024-03-23T11:44:35;4.50;;;4.10;;
8399;SDS011;4237;47.030;15.396;2024-03-23T11:47:07;4.40;;;3.70;;
8399;SDS011;4237;47.030;15.396;2024-03-23T11:49:37;4.80;;;4.30;;
8399;SDS011;4237;47.030;15.396;2024-03-23T11:52:07;6.85;;;4.30;;
8399;SDS011;4237;47.030;15.396;2024-03-23T11:54:36;4.78;;;3.90;;
8399;SDS011;4237;47.030;15.396;2024-03-23T11:57:07;4.95;;;4.20;;
8399;SDS011;4237;47.030;15.396;2024-03-23T11:59:39;4.42;;;4.12;;
8399;SDS011;4237;47.030;15.396;2024-03-23T12:02:09;4.55;;;4.08;;
8399;SDS011;4237;47.030;15.396;2024-03-23T12:04:39;6.00;;;4.70;;
8399;SDS011;4237;47.030;15.396;2024-03-23T12:07:12;4.77;;;4.10;;
8399;SDS011;4237;47.030;15.396;2024-03-23T12:09:41;4.70;;;4.30;;
8399;SDS011;4237;47.030;15.396;2024-03-23T12:12:13;5.10;;;4.13;;
8399;SDS011;4237;47.030;15.396;2024-03-23T12:14:43;4.67;;;4.30;;
8399;SDS011;4237;47.030;15.396;2024-03-23T12:17:13;4.60;;;4.20;;
8399;SDS011;4237;47.030;15.396;2024-03-23T12:19:43;4.47;;;4.05;;
8399;SDS011;4237;47.030;15.396;2024-03-23T12:22:12;4.42;;;4.03;;
8399;SDS011;4237;47.030;15.396;2024-03-23T12:24:41;5.40;;;4.25;;
8399;SDS011;4237;47.030;15.396;2024-03-23T12:27:11;4.20;;;3.77;;
8399;SDS011;4237;47.030;15.396;2024-03-23T12:29:41;4.55;;;4.10;;
8399;SDS011;4237;47.030;15.396;2024-03-23T12:32:13;5.83;;;3.60;;
8399;SDS011;4237;47.030;15.396;2024-03-23T12:34:43;3.60;;;3.30;;
8399;SDS011;4237;47.030;15.396;2024-03-23T12:37:11;3.62;;;3.33;;
8399;SDS011;4237;47.030;15.396;2024-03-23T12:39:40;3.67;;;3.37;;
8399;SDS011;4237;47.030;15.396;2024-03-23T12:42:08;4.73;;;3.50;;
8399;SDS011;4237;47.030;15.396;2024-03-23T12:44:37;3.80;;;3.23;;
8399;SDS011;4237;47.030;15.396;2024-03-23T12:47:05;5.40;;;3.42;;
8399;SDS011;4237;47.030;15.396;2024-03-23T12:49:34;4.17;;;3.17;;
8399;SDS011;4237;47.030;15.396;2024-03-23T12:52:03;4.50;;;3.00;;
8399;SDS011;4237;47.030;15.396;2024-03-23T12:54:33;3.20;;;2.90;;
8399;SDS011;4237;47.030;15.396;2024-03-23T12:57:02;3.83;;;2.67;;
8399;SDS011;4237;47.030;15.396;2024-03-23T12:59:30;4.10;;;3.00;;
8399;SDS011;4237;47.030;15.396;2024-03-23T13:02:01;5.45;;;3.12;;
8399;SDS011;4237;47.030;15.396;2024-03-23T13:04:29;3.95;;;2.80;;
8399;SDS011;4237;47.030;15.396;2024-03-23T13:06:58;2.80;;;2.60;;
8399;SDS011;4237;47.030;15.396;2024-03-23T13:09:27;2.95;;;2.70;;
8399;SDS011;4237;47.030;15.396;2024-03-23T13:11:55;2.37;;;2.17;;
8399;SDS011;4237;47.030;15.396;2024-03-23T13:14:24;4.28;;;2.60;;
8399;SDS011;4237;47.030;15.396;2024-03-23T13:16:52;3.45;;;2.55;;
8399;SDS011;4237;47.030;15.396;2024-03-23T13:19:21;3.33;;;2.62;;
8399;SDS011;4237;47.030;15.396;2024-03-23T13:21:51;2.60;;;2.40;;
8399;SDS011;4237;47.030;15.396;2024-03-23T13:24:22;2.98;;;2.47;;
8399;SDS011;4237;47.030;15.396;2024-03-23T13:26:51;2.70;;;2.50;;
8399;SDS011;4237;47.030;15.396;2024-03-23T13:29:20;2.87;;;2.50;;
8399;SDS011;4237;47.030;15.396;2024-03-23T13:31:50;4.42;;;2.55;;
8399;SDS011;4237;47.030;15.396;2024-03-23T13:34:20;2.95;;;2.70;;
8399;SDS011;4237;47.030;15.396;2024-03-23T13:36:49;2.70;;;2.50;;
8399;SDS011;4237;47.030;15.396;2024-03-23T13:39:17;2.42;;;2.30;;
8399;SDS011;4237;47.030;15.396;2024-03-23T13:41:46;4.47;;;2.65;;
8399;SDS011;4237;47.030;15.396;2024-03-23T13:44:14;3.27;;;2.80;;
8399;SDS011;4237;47.030;15.396;2024-03-23T13:46:43;2.98;;;2.77;;
8399;SDS011;4237;47.030;15.396;2024-03-23T13:49:30;3.72;;;2.70;;
8399;SDS011;4237;47.030;15.396;2024-03-23T13:52:02;3.55;;;2.62;;
8399;SDS011;4237;47.030;15.396;2024-03-23T13:54:31;3.90;;;3.55;;
8399;SDS011;4237;47.030;15.396;2024-03-23T13:57:00;4.15;;;3.70;;
8399;SDS011;4237;47.030;15.396;2024-03-23T13:59:29;4.75;;;3.70;;
8399;SDS011;4237;47.030;15.396;2024-03-23T14:01:58;5.45;;;3.77;;
8399;SDS011;4237;47.030;15.396;2024-03-23T14:04:26;4.78;;;3.17;;
8399;SDS011;4237;47.030;15.396;2024-03-23T14:06:55;3.55;;;3.22;;
8399;SDS011;4237;47.030;15.396;2024-03-23T14:09:24;3.20;;;2.90;;
8399;SDS011;4237;47.030;15.396;2024-03-23T14:11:52;3.52;;;3.22;;
8399;SDS011;4237;47.030;15.396;2024-03-23T14:14:21;3.45;;;2.90;;
8399;SDS011;4237;47.030;15.396;2024-03-23T14:16:50;3.40;;;2.92;;
8399;SDS011;4237;47.030;15.396;2024-03-23T14:19:18;4.50;;;4.10;;
8399;SDS011;4237;47.030;15.396;2024-03-23T14:21:47;3.43;;;3.10;;
8399;SDS011;4237;47.030;15.396;2024-03-23T14:24:15;3.77;;;3.40;;
8399;SDS011;4237;47.030;15.396;2024-03-23T14:26:44;5.93;;;3.30;;
8399;SDS011;4237;47.030;15.396;2024-03-23T14:29:13;4.13;;;3.80;;
8399;SDS011;4237;47.030;15.396;2024-03-23T14:31:41;5.27;;;3.30;;
8399;SDS011;4237;47.030;15.396;2024-03-23T14:34:10;3.93;;;3.33;;
8399;SDS011;4237;47.030;15.396;2024-03-23T14:36:38;4.07;;;3.67;;
8399;SDS011;4237;47.030;15.396;2024-03-23T14:39:07;4.03;;;3.63;;
8399;SDS011;4237;47.030;15.396;2024-03-23T14:41:35;3.63;;;3.10;;
8399;SDS011;4237;47.030;15.396;2024-03-23T14:44:04;4.13;;;3.63;;
8399;SDS011;4237;47.030;15.396;2024-03-23T14:46:32;3.77;;;3.47;;
8399;SDS011;4237;47.030;15.396;2024-03-23T14:49:01;3.77;;;3.40;;
8399;SDS011;4237;47.030;15.396;2024-03-23T14:51:29;3.80;;;3.40;;
8399;SDS011;4237;47.030;15.396;2024-03-23T14:53:59;3.70;;;3.40;;
8399;SDS011;4237;47.030;15.396;2024-03-23T14:56:28;3.70;;;3.40;;
8399;SDS011;4237;47.030;15.396;2024-03-23T14:58:57;3.40;;;3.10;;
8399;SDS011;4237;47.030;15.396;2024-03-23T15:01:25;4.87;;;3.77;;
8399;SDS011;4237;47.030;15.396;2024-03-23T15:03:54;4.00;;;3.43;;
8399;SDS011;4237;47.030;15.396;2024-03-23T15:06:22;4.97;;;3.73;;
8399;SDS011;4237;47.030;15.396;2024-03-23T15:08:51;4.67;;;3.73;;
8399;SDS011;4237;47.030;15.396;2024-03-23T15:11:21;3.83;;;3.33;;
8399;SDS011;4237;47.030;15.396;2024-03-23T15:13:49;4.63;;;3.40;;
8399;SDS011;4237;47.030;15.396;2024-03-23T15:16:18;5.63;;;3.23;;
8399;SDS011;4237;47.030;15.396;2024-03-23T15:18:49;4.50;;;3.40;;
8399;SDS011;4237;47.030;15.396;2024-03-23T15:21:18;6.53;;;1.90;;
8399;SDS011;4237;47.030;15.396;2024-03-23T15:23:49;8.43;;;1.87;;
8399;SDS011;4237;47.030;15.396;2024-03-23T15:26:18;6.73;;;1.50;;
8399;SDS011;4237;47.030;15.396;2024-03-23T15:28:50;4.60;;;1.17;;
8399;SDS011;4237;47.030;15.396;2024-03-23T15:31:26;3.50;;;1.00;;
8399;SDS011;4237;47.030;15.396;2024-03-23T15:33:55;8.90;;;1.07;;
8399;SDS011;4237;47.030;15.396;2024-03-23T15:36:23;4.27;;;0.60;;
8399;SDS011;4237;47.030;15.396;2024-03-23T15:38:52;9.00;;;1.00;;
8399;SDS011;4237;47.030;15.396;2024-03-23T15:41:21;5.60;;;0.80;;
8399;SDS011;4237;47.030;15.396;2024-03-23T15:43:51;3.70;;;0.50;;
8399;SDS011;4237;47.030;15.396;2024-03-23T15:46:20;2.83;;;0.50;;
8399;SDS011;4237;47.030;15.396;2024-03-23T15:48:48;1.73;;;0.40;;
8399;SDS011;4237;47.030;15.396;2024-03-23T15:51:17;1.60;;;0.40;;
8399;SDS011;4237;47.030;15.396;2024-03-23T15:53:46;3.33;;;0.40;;
8399;SDS011;4237;47.030;15.396;2024-03-23T15:56:15;0.70;;;0.40;;
8399;SDS011;4237;47.030;15.396;2024-03-23T15:58:43;1.40;;;0.33;;
8399;SDS011;4237;47.030;15.396;2024-03-23T16:01:13;4.77;;;0.40;;
8399;SDS011;4237;47.030;15.396;2024-03-23T16:03:41;5.77;;;0.60;;
8399;SDS011;4237;47.030;15.396;2024-03-23T16:06:10;3.23;;;0.30;;